Aviation Digital Data Service (ADDS)

Output produced by METARs form (1310 UTC 21 February 2018)
found at http://www.aviationweather.gov/adds/metars/
 
LOWG 211250Z 15003KT 9000 FEW004 BKN045 BKN060 01/M01 Q1014 NOSIG
LOWI 211250Z 06009KT 030V090 9999 FEW025 SCT045 02/M06 Q1014 NOSIG
LOWK 211250Z VRB02KT 9999 FEW030 BKN050 01/M03 Q1013 R10L/19//95 NOSIG
LOWL 211250Z 20003KT 150V290 9999 FEW028 BKN060 01/M05 Q1017 R08/19//95 NOSIG
LOWS 211250Z 34004KT 9999 FEW018 BKN034 01/M04 Q1016 R15/29//95 NOSIG
LOWW 211250Z 33011KT 9999 FEW020 SCT022 BKN025 M01/M04 Q1017 R88/19//95 NOSIG
TAF AMD LOWW 201401Z 2014/2118 36007KT 5000 -SN BR SCT005 OVC015 TX00/2113Z TNM02/2106Z 
     PROB30 
     TEMPO 2014/2021 1400 SN OVC003 
     BECMG 2022/2024 8000 NSW BKN025 
     TEMPO 2100/2118 -SN
       
LOXZ 211250Z 30004KT 20KM -SN FEW020CU BKN047SC 01/M05 Q1013 NOSIG